createdAt,value
2017-11-30T00:00:52.749Z,90.70
2017-11-30T00:03:21.233Z,90.60
2017-11-30T00:05:49.580Z,90.60
2017-11-30T00:08:17.904Z,90.50
2017-11-30T00:10:46.261Z,90.50
2017-11-30T00:13:14.603Z,90.60
2017-11-30T00:15:42.949Z,90.60
2017-11-30T00:18:12.058Z,90.70
2017-11-30T00:20:40.479Z,90.60
2017-11-30T00:23:08.889Z,90.60
2017-11-30T00:25:37.985Z,90.70
2017-11-30T00:28:07.128Z,90.70
2017-11-30T00:30:35.481Z,90.70
2017-11-30T00:33:03.836Z,90.80
2017-11-30T00:35:32.944Z,91.30
2017-11-30T00:38:01.290Z,91.30
2017-11-30T00:40:29.667Z,91.30
2017-11-30T00:46:01.990Z,91.20
2017-11-30T00:48:31.208Z,91.30
2017-11-30T00:50:59.544Z,91.30
2017-11-30T00:53:27.976Z,91.40
2017-11-30T00:55:56.322Z,91.40
2017-11-30T00:58:25.444Z,91.40
2017-11-30T01:00:53.805Z,91.40
2017-11-30T01:03:22.204Z,91.60
2017-11-30T01:05:50.542Z,91.90
2017-11-30T01:08:18.901Z,91.80
2017-11-30T01:10:47.239Z,91.80
2017-11-30T01:13:15.702Z,91.70
2017-11-30T01:15:44.040Z,91.70
2017-11-30T01:18:12.400Z,91.70
2017-11-30T01:20:40.862Z,91.80
2017-11-30T01:23:09.196Z,91.80
2017-11-30T01:25:37.535Z,91.80
2017-11-30T01:28:05.871Z,91.80
2017-11-30T01:30:34.987Z,91.90
2017-11-30T01:33:03.325Z,91.90
2017-11-30T01:35:31.661Z,92.10
2017-11-30T01:38:00.507Z,92.10
2017-11-30T01:40:29.777Z,92.20
2017-11-30T01:42:58.150Z,92.10
2017-11-30T01:45:26.496Z,92.10
2017-11-30T01:47:54.866Z,92.10
2017-11-30T01:50:23.217Z,92.20
2017-11-30T01:52:51.602Z,92.30
2017-11-30T01:55:20.728Z,92.40
2017-11-30T01:57:49.096Z,92.30
2017-11-30T02:00:17.443Z,92.40
2017-11-30T02:02:45.908Z,92.40
2017-11-30T02:05:14.281Z,92.40
2017-11-30T02:07:42.632Z,92.40
2017-11-30T02:10:11.015Z,92.50
2017-11-30T02:12:39.426Z,92.60
2017-11-30T02:15:07.787Z,92.60
2017-11-30T02:17:36.149Z,92.60
2017-11-30T02:20:04.532Z,92.50
2017-11-30T02:22:32.925Z,92.40
2017-11-30T02:25:01.282Z,92.40
2017-11-30T02:27:29.646Z,92.40
2017-11-30T02:29:59.168Z,92.50
2017-11-30T02:32:27.648Z,92.30
2017-11-30T02:34:56.026Z,92.30
2017-11-30T02:37:24.401Z,92.10
2017-11-30T02:39:52.769Z,91.90
2017-11-30T02:42:22.023Z,92.10
2017-11-30T02:44:50.397Z,92.00
2017-11-30T02:47:18.964Z,92.00
2017-11-30T02:49:47.378Z,91.90
2017-11-30T02:52:15.866Z,91.70
2017-11-30T02:54:44.250Z,92.00
2017-11-30T02:57:12.617Z,92.00
2017-11-30T02:59:41.024Z,92.20
2017-11-30T03:02:10.202Z,92.10
2017-11-30T03:04:38.621Z,92.10
2017-11-30T03:07:07.127Z,92.20
2017-11-30T03:09:35.540Z,92.00
2017-11-30T03:12:03.929Z,92.10
2017-11-30T03:14:33.090Z,92.50
2017-11-30T03:17:01.480Z,92.30
2017-11-30T03:19:29.904Z,92.60
2017-11-30T03:21:59.076Z,92.90
2017-11-30T03:24:27.468Z,92.80
2017-11-30T03:26:56.642Z,92.90
2017-11-30T03:29:25.011Z,92.90
2017-11-30T03:31:53.713Z,92.60
2017-11-30T03:34:22.116Z,92.50
2017-11-30T03:36:51.259Z,92.80
2017-11-30T03:39:19.641Z,92.70
2017-11-30T03:41:48.021Z,92.80
2017-11-30T03:44:16.398Z,92.90
2017-11-30T03:46:44.781Z,92.70
2017-11-30T03:49:13.206Z,92.70
2017-11-30T03:51:42.358Z,93.20
2017-11-30T03:54:10.751Z,92.80
2017-11-30T03:56:39.159Z,92.70
2017-11-30T03:59:07.605Z,92.70
2017-11-30T04:01:36.073Z,92.50
2017-11-30T04:04:04.574Z,92.40
2017-11-30T04:06:32.960Z,92.40
2017-11-30T04:09:01.360Z,92.20
2017-11-30T04:11:29.741Z,92.40
2017-11-30T04:13:58.306Z,92.20
2017-11-30T04:16:26.674Z,92.20
2017-11-30T04:18:55.040Z,92.00
2017-11-30T04:21:23.440Z,91.70
2017-11-30T04:23:51.799Z,91.70
2017-11-30T04:26:20.178Z,91.70
2017-11-30T04:28:48.546Z,91.60
2017-11-30T04:31:16.935Z,91.30
2017-11-30T04:33:45.318Z,91.30
2017-11-30T04:36:13.708Z,91.30
2017-11-30T04:38:42.416Z,91.30
2017-11-30T04:41:10.788Z,91.10
2017-11-30T04:43:39.170Z,91.20
2017-11-30T04:46:07.546Z,91.30
2017-11-30T04:48:35.926Z,91.30
2017-11-30T04:51:04.304Z,91.30
2017-11-30T04:53:32.679Z,91.30
2017-11-30T04:56:01.087Z,91.30
2017-11-30T04:58:30.237Z,91.20
2017-11-30T05:00:58.576Z,91.20
2017-11-30T05:03:27.694Z,91.10
2017-11-30T05:05:56.033Z,91.10
2017-11-30T05:08:25.263Z,90.80
2017-11-30T05:10:53.602Z,90.80
2017-11-30T05:13:21.941Z,90.80
2017-11-30T05:15:50.300Z,90.50
2017-11-30T05:18:18.624Z,90.40
2017-11-30T05:20:47.109Z,90.30
2017-11-30T05:23:15.452Z,90.20
2017-11-30T05:25:43.791Z,90.10
2017-11-30T05:28:12.965Z,90.00
2017-11-30T05:30:41.316Z,89.90
2017-11-30T05:33:09.653Z,90.00
2017-11-30T05:35:38.761Z,89.80
2017-11-30T05:38:07.110Z,89.70
2017-11-30T05:40:35.447Z,89.50
2017-11-30T05:43:03.808Z,89.60
2017-11-30T05:45:32.155Z,89.70
2017-11-30T05:48:00.674Z,90.00
2017-11-30T05:50:29.009Z,89.80
2017-11-30T05:52:57.353Z,89.90
2017-11-30T05:55:25.704Z,89.70
2017-11-30T05:57:54.041Z,89.40
2017-11-30T06:00:22.392Z,89.30
2017-11-30T06:02:50.761Z,89.40
2017-11-30T06:05:19.123Z,88.70
2017-11-30T06:07:47.457Z,89.10
2017-11-30T06:10:15.809Z,89.00
2017-11-30T06:12:44.158Z,89.00
2017-11-30T06:15:12.476Z,89.20
2017-11-30T06:17:40.929Z,89.30
2017-11-30T06:20:09.256Z,89.30
2017-11-30T06:22:38.385Z,89.50
2017-11-30T06:25:06.734Z,88.70
2017-11-30T06:27:35.854Z,87.90
2017-11-30T06:30:04.391Z,87.90
2017-11-30T06:32:33.564Z,87.60
2017-11-30T06:35:01.935Z,87.50
2017-11-30T06:37:30.256Z,87.40
2017-11-30T06:39:58.690Z,87.20
2017-11-30T06:42:27.024Z,88.20
2017-11-30T06:44:56.242Z,87.40
2017-11-30T06:47:24.574Z,87.40
2017-11-30T06:49:53.012Z,87.00
2017-11-30T06:52:21.348Z,86.10
2017-11-30T06:54:49.705Z,86.30
2017-11-30T06:57:18.050Z,86.10
2017-11-30T06:59:46.390Z,86.10
2017-11-30T07:02:14.969Z,86.10
2017-11-30T07:04:43.288Z,86.10
2017-11-30T07:07:11.668Z,86.00
2017-11-30T07:09:40.017Z,85.70
2017-11-30T07:12:08.838Z,86.10
2017-11-30T07:14:37.180Z,86.90
2017-11-30T07:17:05.535Z,86.90
2017-11-30T07:19:33.878Z,87.40
2017-11-30T07:22:02.207Z,87.10
2017-11-30T07:24:30.561Z,87.90
2017-11-30T07:26:58.909Z,88.30
2017-11-30T07:29:27.251Z,88.70
2017-11-30T07:31:55.676Z,88.70
2017-11-30T07:34:24.279Z,89.20
2017-11-30T07:36:52.620Z,89.20
2017-11-30T07:39:21.039Z,89.30
2017-11-30T07:41:49.400Z,89.40
2017-11-30T07:44:17.798Z,89.60
2017-11-30T07:46:46.203Z,89.40
2017-11-30T07:49:14.532Z,89.40
2017-11-30T07:51:42.920Z,89.00
2017-11-30T07:54:11.262Z,89.20
2017-11-30T07:56:40.370Z,89.10
2017-11-30T07:59:09.477Z,88.60
2017-11-30T08:01:37.920Z,88.60
2017-11-30T08:04:06.252Z,88.60
2017-11-30T08:06:34.594Z,88.50
2017-11-30T08:09:03.226Z,89.90
2017-11-30T08:11:31.558Z,90.00
2017-11-30T08:14:00.081Z,89.40
2017-11-30T08:16:28.413Z,87.50
2017-11-30T08:18:57.522Z,87.00
2017-11-30T08:21:26.638Z,87.10
2017-11-30T08:23:54.977Z,87.00
2017-11-30T08:26:24.089Z,88.10
2017-11-30T08:28:53.196Z,88.00
2017-11-30T08:31:21.593Z,87.80
2017-11-30T08:33:49.929Z,88.00
2017-11-30T08:36:19.062Z,87.60
2017-11-30T08:38:47.444Z,87.60
2017-11-30T08:41:15.820Z,87.70
2017-11-30T08:43:44.161Z,88.00
2017-11-30T08:46:12.633Z,87.80
2017-11-30T08:48:41.018Z,88.70
2017-11-30T08:51:09.759Z,87.70
2017-11-30T08:53:38.142Z,87.50
2017-11-30T08:56:06.503Z,86.90
2017-11-30T08:58:34.866Z,86.50
2017-11-30T09:01:03.978Z,86.40
2017-11-30T09:03:32.325Z,86.40
2017-11-30T09:06:01.432Z,87.20
2017-11-30T09:08:30.525Z,86.60
2017-11-30T09:10:59.657Z,86.50
2017-11-30T09:13:27.995Z,86.50
2017-11-30T09:15:57.089Z,86.10
2017-11-30T09:18:26.226Z,85.90
2017-11-30T09:20:54.567Z,85.90
2017-11-30T09:23:23.680Z,85.60
2017-11-30T09:25:52.017Z,85.10
2017-11-30T09:28:20.384Z,85.40
2017-11-30T09:30:48.725Z,85.40
2017-11-30T09:33:17.074Z,85.50
2017-11-30T09:35:46.260Z,85.10
2017-11-30T09:38:14.597Z,85.10
2017-11-30T09:40:43.288Z,85.10
2017-11-30T09:43:11.614Z,85.10
2017-11-30T09:45:40.741Z,85.10
2017-11-30T09:48:09.228Z,84.90
2017-11-30T09:50:38.378Z,84.50
2017-11-30T09:53:06.669Z,84.50
2017-11-30T09:55:35.066Z,83.90
2017-11-30T09:58:03.433Z,84.20
2017-11-30T10:00:32.668Z,82.30
2017-11-30T10:03:01.021Z,82.30
2017-11-30T10:05:30.177Z,81.40
2017-11-30T10:07:58.520Z,81.40
2017-11-30T10:10:26.861Z,82.10
2017-11-30T10:12:55.265Z,82.60
2017-11-30T10:15:23.714Z,82.70
2017-11-30T10:17:52.041Z,81.60
2017-11-30T10:20:20.434Z,81.80
2017-11-30T10:22:48.766Z,80.30
2017-11-30T10:25:17.901Z,80.00
2017-11-30T10:27:46.284Z,80.00
2017-11-30T10:30:14.609Z,79.50
2017-11-30T10:32:43.044Z,79.40
2017-11-30T10:35:11.467Z,80.20
2017-11-30T10:37:39.834Z,80.00
2017-11-30T10:40:08.178Z,78.90
2017-11-30T10:42:36.534Z,77.70
2017-11-30T10:45:04.882Z,78.00
2017-11-30T10:47:33.225Z,78.40
2017-11-30T10:50:01.568Z,78.60
2017-11-30T10:52:30.661Z,78.60
2017-11-30T10:54:59.025Z,78.60
2017-11-30T10:57:28.158Z,78.20
2017-11-30T10:59:56.518Z,78.20
2017-11-30T11:02:24.910Z,77.90
2017-11-30T11:04:53.397Z,77.30
2017-11-30T11:07:21.864Z,77.10
2017-11-30T11:09:50.200Z,77.60
2017-11-30T11:12:18.564Z,76.90
2017-11-30T11:14:46.915Z,76.40
2017-11-30T11:17:15.249Z,75.90
2017-11-30T11:19:44.357Z,75.90
2017-11-30T11:22:13.594Z,76.00
2017-11-30T11:24:42.166Z,76.00
2017-11-30T11:27:10.497Z,76.00
2017-11-30T11:29:38.884Z,75.70
2017-11-30T11:32:07.231Z,75.60
2017-11-30T11:34:35.610Z,76.80
2017-11-30T11:37:03.953Z,76.40
2017-11-30T11:39:32.298Z,76.80
2017-11-30T11:42:01.479Z,76.70
2017-11-30T11:44:29.808Z,77.20
2017-11-30T11:46:58.168Z,77.20
2017-11-30T11:49:27.296Z,77.50
2017-11-30T11:51:55.661Z,77.40
2017-11-30T11:54:24.752Z,78.20
2017-11-30T11:56:53.103Z,78.10
2017-11-30T11:59:21.467Z,78.00
2017-11-30T12:01:49.788Z,78.50
2017-11-30T12:04:18.189Z,78.60
2017-11-30T12:06:46.525Z,78.30
2017-11-30T12:09:15.724Z,79.20
2017-11-30T12:11:44.060Z,79.20
2017-11-30T12:14:12.419Z,79.00
2017-11-30T12:16:40.794Z,78.90
2017-11-30T12:19:09.138Z,79.30
2017-11-30T12:21:37.556Z,79.40
2017-11-30T12:24:06.037Z,79.00
2017-11-30T12:26:34.420Z,79.40
2017-11-30T12:29:02.808Z,79.10
2017-11-30T12:31:31.167Z,78.40
2017-11-30T12:33:59.521Z,78.70
2017-11-30T12:36:28.652Z,78.60
2017-11-30T12:38:57.021Z,78.40
2017-11-30T12:41:25.569Z,78.40
2017-11-30T12:43:53.906Z,78.50
2017-11-30T12:46:22.265Z,78.40
2017-11-30T12:48:50.655Z,77.80
2017-11-30T12:51:18.998Z,77.80
2017-11-30T12:53:48.099Z,77.70
2017-11-30T12:56:17.252Z,78.40
2017-11-30T12:58:45.581Z,77.70
2017-11-30T13:01:13.944Z,77.90
2017-11-30T13:03:42.336Z,78.20
2017-11-30T13:06:11.435Z,78.40
2017-11-30T13:08:39.782Z,78.40
2017-11-30T13:11:08.147Z,78.70
2017-11-30T13:13:36.524Z,78.80
2017-11-30T13:16:04.866Z,78.70
2017-11-30T13:18:33.238Z,78.90
2017-11-30T13:21:01.588Z,79.00
2017-11-30T13:23:29.914Z,79.40
2017-11-30T13:25:58.295Z,79.20
2017-11-30T13:28:26.664Z,78.90
2017-11-30T13:30:55.040Z,78.70
2017-11-30T13:33:23.377Z,79.00
2017-11-30T13:35:51.729Z,78.90
2017-11-30T13:38:20.071Z,78.80
2017-11-30T13:40:48.440Z,78.90
2017-11-30T13:43:17.572Z,78.50
2017-11-30T13:45:45.906Z,78.50
2017-11-30T13:48:15.061Z,79.00
2017-11-30T13:50:43.395Z,78.90
2017-11-30T13:53:11.735Z,79.20
2017-11-30T13:55:40.187Z,79.20
2017-11-30T13:58:28.352Z,78.80
2017-11-30T14:00:56.679Z,78.90
2017-11-30T14:03:25.017Z,78.90
2017-11-30T14:05:53.567Z,80.00
2017-11-30T14:08:21.920Z,79.40
2017-11-30T14:10:50.318Z,79.60
2017-11-30T14:13:18.737Z,80.00
2017-11-30T14:15:47.093Z,80.10
2017-11-30T14:18:15.446Z,80.20
2017-11-30T14:20:43.811Z,80.30
2017-11-30T14:23:12.219Z,80.50
2017-11-30T14:25:40.551Z,80.40
2017-11-30T14:28:09.648Z,80.70
2017-11-30T14:30:38.769Z,80.90
2017-11-30T14:33:07.111Z,80.90
2017-11-30T14:35:35.455Z,80.80
2017-11-30T14:38:03.798Z,80.70
2017-11-30T14:40:32.200Z,81.00
2017-11-30T14:43:00.544Z,81.00
2017-11-30T14:45:29.676Z,81.10
2017-11-30T14:47:58.762Z,81.40
2017-11-30T14:50:27.109Z,81.30
2017-11-30T14:52:56.252Z,81.50
2017-11-30T14:55:24.622Z,81.40
2017-11-30T14:57:52.964Z,81.50
2017-11-30T15:00:22.110Z,82.00
2017-11-30T15:02:50.474Z,81.90
2017-11-30T15:05:18.821Z,82.40
2017-11-30T15:07:47.938Z,82.50
2017-11-30T15:10:16.308Z,82.50
2017-11-30T15:12:44.867Z,82.60
2017-11-30T15:15:14.015Z,82.70
2017-11-30T15:17:42.358Z,82.60
2017-11-30T15:20:11.470Z,83.00
2017-11-30T15:22:39.818Z,83.00
2017-11-30T15:25:08.145Z,83.00
2017-11-30T15:27:36.497Z,83.00
2017-11-30T15:30:05.013Z,83.20
2017-11-30T15:32:33.385Z,83.50
2017-11-30T15:35:01.728Z,83.50
2017-11-30T15:37:30.843Z,84.00
2017-11-30T15:39:59.261Z,84.00
2017-11-30T15:42:27.587Z,84.20
2017-11-30T15:44:55.975Z,84.30
2017-11-30T15:47:25.160Z,84.10
2017-11-30T15:49:54.459Z,85.00
2017-11-30T15:52:23.620Z,84.20
2017-11-30T15:54:52.066Z,84.20
2017-11-30T15:57:20.436Z,84.30
2017-11-30T15:59:48.951Z,84.30
2017-11-30T16:02:17.337Z,85.00
2017-11-30T16:04:45.832Z,84.30
2017-11-30T16:07:14.328Z,84.30
2017-11-30T16:09:42.694Z,84.50
2017-11-30T16:12:11.608Z,84.50
2017-11-30T16:14:39.943Z,84.50
2017-11-30T16:17:08.321Z,84.50
2017-11-30T16:19:36.680Z,84.50
2017-11-30T16:22:05.036Z,84.20
2017-11-30T16:24:34.240Z,84.10
2017-11-30T16:27:03.445Z,83.90
2017-11-30T16:29:31.839Z,83.80
2017-11-30T16:32:00.210Z,83.80
2017-11-30T16:34:28.571Z,83.70
2017-11-30T16:36:56.946Z,83.70
2017-11-30T16:39:25.274Z,83.60
2017-11-30T16:41:53.626Z,83.90
2017-11-30T16:44:22.192Z,84.20
2017-11-30T16:46:50.536Z,84.30
2017-11-30T16:49:18.924Z,84.30
2017-11-30T16:51:47.356Z,84.20
2017-11-30T16:54:15.723Z,84.40
2017-11-30T16:56:44.220Z,84.40
2017-11-30T16:59:12.655Z,84.40
2017-11-30T17:01:41.809Z,84.60
2017-11-30T17:04:10.127Z,84.00
2017-11-30T17:06:39.280Z,84.50
2017-11-30T17:09:07.657Z,84.30
2017-11-30T17:11:36.188Z,84.30
2017-11-30T17:14:04.500Z,84.10
2017-11-30T17:16:32.868Z,83.50
2017-11-30T17:19:01.196Z,83.30
2017-11-30T17:21:29.533Z,83.40
2017-11-30T17:23:57.894Z,83.40
2017-11-30T17:26:26.990Z,83.60
2017-11-30T17:28:55.420Z,83.60
2017-11-30T17:31:23.930Z,83.70
2017-11-30T17:33:52.372Z,83.60
2017-11-30T17:36:21.016Z,83.60
2017-11-30T17:38:50.123Z,83.70
2017-11-30T17:41:18.451Z,83.60
2017-11-30T17:43:46.896Z,83.40
2017-11-30T17:46:15.230Z,83.30
2017-11-30T17:48:43.964Z,82.90
2017-11-30T17:51:12.350Z,82.90
2017-11-30T17:53:40.749Z,82.80
2017-11-30T17:56:09.063Z,83.00
2017-11-30T17:58:38.211Z,83.10
2017-11-30T18:01:06.561Z,83.10
2017-11-30T18:03:34.898Z,83.10
2017-11-30T18:06:03.500Z,83.00
2017-11-30T18:08:31.831Z,83.00
2017-11-30T18:11:00.219Z,82.90
2017-11-30T18:13:30.534Z,83.00
2017-11-30T18:16:00.482Z,82.90
2017-11-30T18:18:28.801Z,82.90
2017-11-30T18:20:57.209Z,82.80
2017-11-30T18:23:25.557Z,82.70
2017-11-30T18:25:53.939Z,82.80
2017-11-30T18:28:24.981Z,82.70
2017-11-30T18:30:54.629Z,82.80
2017-11-30T18:33:22.969Z,82.70
2017-11-30T18:35:51.317Z,82.80
2017-11-30T18:38:19.642Z,82.90
2017-11-30T18:40:48.033Z,82.70
2017-11-30T18:43:16.363Z,82.70
2017-11-30T18:45:45.476Z,82.90
2017-11-30T18:48:13.868Z,82.90
2017-11-30T18:50:42.211Z,83.10
2017-11-30T18:53:11.387Z,83.40
2017-11-30T18:55:39.709Z,83.10
2017-11-30T18:58:08.101Z,83.40
2017-11-30T19:00:36.449Z,83.50
2017-11-30T19:03:05.547Z,84.70
2017-11-30T19:05:34.675Z,84.00
2017-11-30T19:08:03.056Z,83.90
2017-11-30T19:10:31.516Z,83.80
2017-11-30T19:13:00.660Z,84.10
2017-11-30T19:15:28.995Z,84.10
2017-11-30T19:17:57.415Z,84.20
2017-11-30T19:20:25.748Z,84.30
2017-11-30T19:22:54.106Z,84.60
2017-11-30T19:25:22.442Z,84.50
2017-11-30T19:27:50.791Z,84.50
2017-11-30T19:30:19.147Z,84.80
2017-11-30T19:32:47.554Z,84.70
2017-11-30T19:35:16.055Z,84.80
2017-11-30T19:37:44.400Z,85.00
2017-11-30T19:40:13.585Z,85.30
2017-11-30T19:42:41.918Z,85.30
2017-11-30T19:45:10.254Z,85.40
2017-11-30T19:47:39.483Z,85.80
2017-11-30T19:50:07.839Z,85.80
2017-11-30T19:52:36.952Z,86.10
2017-11-30T19:55:05.304Z,86.10
2017-11-30T19:57:34.424Z,86.30
2017-11-30T20:00:03.521Z,86.50
2017-11-30T20:02:31.913Z,86.50
2017-11-30T20:05:00.277Z,86.60
2017-11-30T20:07:28.603Z,86.60
2017-11-30T20:09:56.962Z,86.60
2017-11-30T20:12:25.450Z,86.60
2017-11-30T20:14:53.788Z,86.60
2017-11-30T20:17:22.169Z,86.70
2017-11-30T20:19:51.266Z,86.80
2017-11-30T20:22:19.679Z,86.70
2017-11-30T20:24:48.010Z,87.10
2017-11-30T20:27:17.119Z,86.30
2017-11-30T20:29:45.460Z,86.20
2017-11-30T20:32:13.826Z,86.20
2017-11-30T20:34:42.278Z,85.80
2017-11-30T20:37:10.689Z,85.80
2017-11-30T20:39:39.061Z,85.70
2017-11-30T20:42:07.386Z,85.30
2017-11-30T20:44:35.754Z,85.30
2017-11-30T20:47:04.907Z,85.80
2017-11-30T20:49:33.227Z,85.60
2017-11-30T20:52:01.612Z,85.80
2017-11-30T20:54:30.772Z,86.60
2017-11-30T20:56:59.163Z,86.50
2017-11-30T20:59:27.513Z,86.70
2017-11-30T21:01:55.915Z,86.90
2017-11-30T21:04:24.286Z,86.70
2017-11-30T21:06:52.666Z,86.80
2017-11-30T21:09:22.080Z,86.50
2017-11-30T21:11:50.500Z,86.60
2017-11-30T21:14:18.848Z,86.70
2017-11-30T21:16:47.205Z,86.80
2017-11-30T21:19:15.542Z,87.20
2017-11-30T21:21:43.920Z,87.40
2017-11-30T21:24:12.296Z,87.50
2017-11-30T21:26:40.752Z,87.50
2017-11-30T21:29:09.087Z,87.20
2017-11-30T21:31:37.429Z,87.20
2017-11-30T21:34:06.542Z,87.90
2017-11-30T21:36:34.880Z,87.90
2017-11-30T21:39:03.217Z,87.90
2017-11-30T21:41:31.569Z,87.90
2017-11-30T21:43:59.932Z,88.00
2017-11-30T21:46:29.816Z,87.50
2017-11-30T21:48:58.189Z,87.40
2017-11-30T21:51:26.614Z,87.30
2017-11-30T21:53:55.727Z,87.30
2017-11-30T21:56:24.093Z,87.10
2017-11-30T21:58:53.232Z,87.50
2017-11-30T22:01:21.580Z,87.50
2017-11-30T22:03:49.947Z,87.60
2017-11-30T22:06:19.053Z,87.80
2017-11-30T22:08:47.488Z,87.80
2017-11-30T22:11:16.077Z,87.90
2017-11-30T22:13:44.409Z,88.20
2017-11-30T22:16:12.771Z,88.50
2017-11-30T22:18:41.194Z,88.60
2017-11-30T22:21:10.469Z,88.90
2017-11-30T22:23:38.827Z,88.80
2017-11-30T22:26:07.152Z,89.00
2017-11-30T22:28:35.594Z,89.10
2017-11-30T22:31:03.985Z,89.30
2017-11-30T22:33:32.296Z,89.40
2017-11-30T22:36:00.751Z,89.40
2017-11-30T22:38:29.093Z,89.60
2017-11-30T22:40:58.213Z,89.90
2017-11-30T22:43:26.555Z,89.90
2017-11-30T22:45:55.693Z,89.80
2017-11-30T22:48:24.056Z,89.80
2017-11-30T22:50:52.399Z,89.80
2017-11-30T22:53:20.740Z,90.00
2017-11-30T22:55:49.098Z,90.00
2017-11-30T22:58:17.478Z,90.00
2017-11-30T23:00:45.858Z,90.00
2017-11-30T23:03:14.242Z,89.90
2017-11-30T23:05:42.587Z,89.70
2017-11-30T23:10:47.261Z,89.90
2017-11-30T23:13:15.805Z,89.50
2017-11-30T23:15:44.126Z,89.50
2017-11-30T23:18:12.498Z,89.60
2017-11-30T23:20:40.970Z,89.60
2017-11-30T23:23:10.386Z,89.70
2017-11-30T23:25:38.952Z,89.60
2017-11-30T23:28:07.285Z,89.60
2017-11-30T23:30:35.611Z,89.60
2017-11-30T23:33:03.949Z,89.60
2017-11-30T23:35:32.306Z,89.60
2017-11-30T23:38:00.652Z,89.60
2017-11-30T23:40:29.120Z,89.60
2017-11-30T23:42:58.225Z,89.50
2017-11-30T23:45:26.633Z,89.50
2017-11-30T23:47:55.116Z,89.40
2017-11-30T23:50:23.443Z,89.20
2017-11-30T23:52:52.558Z,89.30
2017-11-30T23:55:20.897Z,89.20
2017-11-30T23:57:49.234Z,89.30
